Time;durP1;ratioP1;P1;durP2;ratioP2;P2;SDS_P1;SDS_P2;PMS_P1;PMS_P2;Temp;Humidity;BMP_temperature;BMP_pressure;BME280_temperature;BME280_humidity;BME280_pressure;Samples;Min_cycle;Max_cycle;Signal;HPM_P1;HPM_P2
2023/03/01 00:02:21;;;;;;;14.52;8.43;;;0.00;99.90;;;;;;5037575;28;20104;-74
2023/03/01 00:04:47;;;;;;;16.25;8.25;;;-0.10;99.90;;;;;;5055309;28;20087;-74
2023/03/01 00:07:13;;;;;;;14.77;8.43;;;-0.10;99.90;;;;;;5054454;28;20140;-74
2023/03/01 00:09:39;;;;;;;14.63;8.18;;;-0.10;99.90;;;;;;5054238;28;20051;-75
2023/03/01 00:12:06;;;;;;;18.10;9.23;;;-0.10;99.90;;;;;;5037751;28;20040;-69
2023/03/01 00:14:32;;;;;;;17.02;9.48;;;-0.10;99.90;;;;;;5052600;28;21906;-68
2023/03/01 00:16:58;;;;;;;19.63;11.13;;;-0.10;99.90;;;;;;5031893;28;20045;-69
2023/03/01 00:19:24;;;;;;;23.27;11.20;;;-0.20;99.90;;;;;;5037307;28;20460;-73
2023/03/01 00:21:49;;;;;;;21.98;12.48;;;-0.20;99.90;;;;;;5041317;28;20053;-70
2023/03/01 00:24:16;;;;;;;23.67;12.20;;;0.10;99.90;;;;;;5055511;28;20041;-74
2023/03/01 00:26:41;;;;;;;22.50;11.93;;;-0.20;99.90;;;;;;5051552;28;20045;-74
2023/03/01 00:29:07;;;;;;;27.95;12.98;;;-0.30;99.90;;;;;;5039156;28;20045;-74
2023/03/01 00:31:34;;;;;;;27.70;12.98;;;-0.30;99.90;;;;;;5038890;28;20045;-74
2023/03/01 00:34:02;;;;;;;25.50;13.40;;;-1.10;99.90;;;;;;5067863;28;20036;-74
2023/03/01 00:36:31;;;;;;;27.48;14.23;;;-0.30;99.90;;;;;;5061474;28;20041;-74
2023/03/01 00:38:57;;;;;;;31.40;15.20;;;0.70;99.90;;;;;;5050303;28;20406;-73
2023/03/01 00:41:26;;;;;;;28.13;13.95;;;-0.40;99.90;;;;;;5065472;28;20036;-73
2023/03/01 00:43:52;;;;;;;27.13;14.07;;;-0.40;99.90;;;;;;5061691;28;20044;-73
2023/03/01 00:46:22;;;;;;;28.42;13.38;;;-0.40;99.90;;;;;;5068235;28;20044;-73
2023/03/01 00:48:48;;;;;;;28.38;14.02;;;-0.40;99.90;;;;;;5050676;28;20044;-73
2023/03/01 00:51:22;;;;;;;30.75;14.88;;;-0.40;99.90;;;;;;5060155;28;20037;-73
2023/03/01 00:53:51;;;;;;;22.92;13.30;;;-0.50;99.90;;;;;;5039892;28;20527;-73
2023/03/01 00:56:16;;;;;;;26.70;13.90;;;-0.50;99.90;;;;;;5046392;28;20105;-73
2023/03/01 00:58:42;;;;;;;28.98;14.60;;;-0.50;99.90;;;;;;5068477;28;20033;-73
2023/03/01 01:01:19;;;;;;;25.88;14.02;;;-0.50;99.90;;;;;;5056935;28;20124;-74
2023/03/01 01:03:50;;;;;;;25.23;12.95;;;-0.50;99.90;;;;;;5031549;28;20497;-75
2023/03/01 01:06:18;;;;;;;;;;;-0.60;99.90;;;;;;5053437;28;20143;-74
2023/03/01 01:08:43;;;;;;;24.10;12.48;;;-0.60;99.90;;;;;;5065523;28;19929;-74
2023/03/01 01:11:10;;;;;;;26.00;13.60;;;-0.40;99.90;;;;;;5051180;28;20049;-74
2023/03/01 01:13:37;;;;;;;24.20;13.52;;;0.40;99.90;;;;;;5053727;28;20060;-75
2023/03/01 01:16:03;;;;;;;30.90;14.25;;;-0.60;99.90;;;;;;5036042;28;20047;-74
2023/03/01 01:18:29;;;;;;;27.48;14.38;;;-0.60;99.90;;;;;;5030435;28;20310;-74
2023/03/01 01:20:55;;;;;;;25.23;13.55;;;-0.70;99.90;;;;;;5056748;28;20050;-74
2023/03/01 01:23:21;;;;;;;22.70;11.88;;;0.10;99.90;;;;;;5044567;28;20476;-74
2023/03/01 01:25:47;;;;;;;16.73;9.88;;;-0.70;99.90;;;;;;5018118;28;20137;-74
2023/03/01 01:28:12;;;;;;;15.63;9.27;;;-0.70;99.90;;;;;;5061113;28;20087;-74
2023/03/01 01:30:38;;;;;;;16.10;8.70;;;-0.60;99.90;;;;;;5049155;28;20059;-74
2023/03/01 01:33:04;;;;;;;13.65;7.82;;;-0.70;99.90;;;;;;5059125;28;20056;-74
2023/03/01 01:35:30;;;;;;;15.15;8.43;;;-0.70;99.90;;;;;;5041658;28;20040;-74
2023/03/01 01:37:56;;;;;;;16.50;7.82;;;-0.30;99.90;;;;;;5050531;28;20527;-74
2023/03/01 01:40:22;;;;;;;17.33;7.90;;;-0.70;99.90;;;;;;5073384;28;20048;-74
2023/03/01 01:42:47;;;;;;;18.30;8.35;;;-0.20;99.90;;;;;;5051758;28;20450;-74
2023/03/01 01:45:31;;;;;;;19.05;8.70;;;-0.80;99.90;;;;;;5047271;28;20059;-73
2023/03/01 01:48:03;;;;;;;18.83;9.00;;;-0.90;99.90;;;;;;5068971;28;20101;-73
2023/03/01 01:50:37;;;;;;;26.88;7.97;;;-0.90;99.90;;;;;;5053360;28;20048;-74
2023/03/01 01:53:08;;;;;;;14.05;7.72;;;-1.00;99.90;;;;;;5038400;28;20557;-74
2023/03/01 01:55:39;;;;;;;13.40;7.82;;;-1.00;99.90;;;;;;5032136;28;20541;-74
2023/03/01 01:58:08;;;;;;;16.30;8.05;;;-1.00;99.90;;;;;;5038160;28;20059;-74
2023/03/01 02:00:34;;;;;;;15.88;8.05;;;-1.10;99.90;;;;;;5070010;28;20045;-74
2023/03/01 02:03:09;;;;;;;15.55;7.97;;;-1.10;99.90;;;;;;5072991;28;20072;-74
2023/03/01 02:05:56;;;;;;;15.57;8.48;;;-1.10;99.90;;;;;;5034153;28;20051;-74
2023/03/01 02:08:26;;;;;;;14.02;7.60;;;-1.20;99.90;;;;;;5058396;28;20045;-74
2023/03/01 02:10:52;;;;;;;24.38;7.80;;;-0.90;99.90;;;;;;5066063;28;20048;-73
2023/03/01 02:13:18;;;;;;;16.77;7.75;;;-1.20;99.90;;;;;;5051183;28;20044;-74
2023/03/01 02:15:44;;;;;;;11.38;7.28;;;-1.20;99.90;;;;;;5058545;28;20051;-74
2023/03/01 02:18:14;;;;;;;15.13;7.60;;;-1.30;99.90;;;;;;5071961;28;20056;-74
2023/03/01 02:20:55;;;;;;;14.18;7.65;;;-1.30;99.90;;;;;;5069830;28;20040;-74
2023/03/01 02:23:20;;;;;;;14.67;7.33;;;-1.30;99.90;;;;;;5047266;28;20125;-74
2023/03/01 02:26:01;;;;;;;11.73;7.50;;;-1.40;99.90;;;;;;5062742;28;22214;-74
2023/03/01 02:28:48;;;;;;;13.02;7.45;;;-0.70;99.90;;;;;;5053474;28;20086;-74
2023/03/01 02:31:50;;;;;;;12.50;7.00;;;-0.20;99.90;;;;;;5034306;28;20052;-74
2023/03/01 02:34:19;;;;;;;12.32;6.72;;;-1.30;99.90;;;;;;5064851;28;20166;-74
2023/03/01 02:36:49;;;;;;;12.13;6.65;;;-1.40;99.90;;;;;;5051529;28;20471;-74
2023/03/01 02:39:18;;;;;;;15.75;6.65;;;-1.40;99.90;;;;;;5048221;28;20045;-74
2023/03/01 02:41:49;;;;;;;10.88;6.60;;;-1.30;99.90;;;;;;5042199;28;20032;-74
2023/03/01 02:44:15;;;;;;;14.23;6.80;;;-1.40;99.90;;;;;;5054453;28;20515;-74
2023/03/01 02:46:47;;;;;;;13.75;6.70;;;-1.40;99.90;;;;;;5038109;28;20040;-74
2023/03/01 02:49:37;;;;;;;12.88;6.47;;;-1.40;99.90;;;;;;5043751;28;20041;-74
2023/03/01 02:52:15;;;;;;;15.20;8.25;;;-0.90;99.90;;;;;;5052822;28;20059;-74
2023/03/01 02:54:52;;;;;;;14.95;8.00;;;-1.50;99.90;;;;;;5067706;28;20047;-74
2023/03/01 02:57:19;;;;;;;17.02;8.43;;;-1.50;99.90;;;;;;5039328;28;20067;-74
2023/03/01 02:59:45;;;;;;;15.80;7.63;;;-1.50;99.90;;;;;;5033072;28;20063;-75
2023/03/01 03:02:36;;;;;;;68.30;8.75;;;-1.60;99.90;;;;;;5076514;28;20048;-74
2023/03/01 03:05:14;;;;;;;14.07;7.38;;;-1.50;99.90;;;;;;5042164;28;20063;-74
2023/03/01 03:07:42;;;;;;;30.73;8.57;;;-1.50;99.90;;;;;;5043869;28;20044;-74
2023/03/01 03:10:12;;;;;;;38.97;9.32;;;-1.30;99.90;;;;;;5064044;28;20049;-74
2023/03/01 03:12:38;;;;;;;42.67;9.10;;;-1.60;99.90;;;;;;5058713;28;20051;-74
2023/03/01 03:15:08;;;;;;;16.10;8.48;;;-1.60;99.90;;;;;;5053441;28;20417;-74
2023/03/01 03:17:38;;;;;;;25.85;9.13;;;-1.50;99.90;;;;;;5042047;28;20052;-75
2023/03/01 03:20:10;;;;;;;19.95;10.02;;;-1.60;99.90;;;;;;5038043;28;20109;-74
2023/03/01 03:22:37;;;;;;;20.52;10.82;;;-1.60;99.90;;;;;;5059585;28;20084;-74
2023/03/01 03:25:03;;;;;;;17.55;9.98;;;-1.60;99.90;;;;;;5066554;28;20503;-74
2023/03/01 03:27:29;;;;;;;16.63;9.00;;;-1.60;99.90;;;;;;5045727;28;20045;-74
2023/03/01 03:29:54;;;;;;;17.75;9.82;;;-1.60;99.90;;;;;;5031551;28;20103;-75
2023/03/01 03:32:20;;;;;;;17.27;9.65;;;-1.60;99.90;;;;;;5048681;28;22073;-75
2023/03/01 03:34:46;;;;;;;17.33;9.57;;;-1.60;99.90;;;;;;5053620;28;20072;-74
2023/03/01 03:38:01;;;;;;;21.50;10.05;;;-1.10;99.90;;;;;;5040018;28;20047;-74
2023/03/01 03:39:58;;;;;;;18.08;10.30;;;-1.70;99.90;;;;;;5052569;28;20080;-75
2023/03/01 03:42:24;;;;;;;18.90;9.25;;;-1.00;99.90;;;;;;5057514;28;20525;-74
2023/03/01 03:44:49;;;;;;;18.90;9.45;;;-1.70;99.90;;;;;;5064828;28;20051;-74
2023/03/01 03:47:15;;;;;;;19.50;9.57;;;-1.80;99.90;;;;;;5052318;28;20059;-74
2023/03/01 03:49:41;;;;;;;18.98;9.77;;;-1.70;99.90;;;;;;5036987;28;20056;-74
2023/03/01 03:52:13;;;;;;;20.75;10.38;;;-1.70;99.90;;;;;;5065661;28;20094;-74
2023/03/01 03:54:40;;;;;;;18.55;9.80;;;-1.80;99.90;;;;;;5042860;28;20075;-74
2023/03/01 03:57:06;;;;;;;17.90;9.40;;;-1.80;99.90;;;;;;5042670;28;20076;-74
2023/03/01 03:59:32;;;;;;;20.58;9.63;;;-1.80;99.90;;;;;;5044083;28;20043;-73
2023/03/01 04:01:58;;;;;;;18.25;10.52;;;-1.80;99.90;;;;;;5042403;28;20782;-74
2023/03/01 04:04:23;;;;;;;18.42;9.70;;;-1.90;99.90;;;;;;5047122;28;20052;-74
2023/03/01 04:06:49;;;;;;;19.42;8.95;;;-1.90;99.90;;;;;;5044108;28;20699;-73
2023/03/01 04:09:15;;;;;;;17.73;8.52;;;-0.50;99.90;;;;;;5039435;28;20569;-73
2023/03/01 04:11:41;;;;;;;23.85;9.18;;;-2.00;99.90;;;;;;5041287;28;20074;-74
2023/03/01 04:14:06;;;;;;;35.95;8.70;;;-2.10;99.90;;;;;;5055017;28;20067;-76
2023/03/01 04:16:32;;;;;;;48.88;8.90;;;-2.20;99.90;;;;;;5056968;28;20043;-74
2023/03/01 04:19:00;;;;;;;35.63;8.77;;;-2.20;99.90;;;;;;5037672;28;20036;-75
2023/03/01 04:21:26;;;;;;;41.08;9.00;;;-2.30;99.90;;;;;;5066112;28;20048;-75
2023/03/01 04:23:52;;;;;;;15.70;8.40;;;-2.20;99.90;;;;;;5049290;28;20149;-74
2023/03/01 04:26:19;;;;;;;17.08;8.18;;;-1.90;99.90;;;;;;5066737;28;20175;-74
2023/03/01 04:28:47;;;;;;;16.48;8.73;;;-2.40;99.90;;;;;;5033895;28;20084;-74
2023/03/01 04:31:18;;;;;;;36.58;8.90;;;-2.50;99.90;;;;;;5032879;28;20036;-74
2023/03/01 04:33:47;;;;;;;36.15;8.90;;;-2.50;99.90;;;;;;5054634;28;20044;-74
2023/03/01 04:36:15;;;;;;;24.23;8.10;;;-1.60;99.90;;;;;;5023599;28;20044;-75
2023/03/01 04:38:41;;;;;;;18.17;9.07;;;-2.60;99.90;;;;;;5062008;28;20668;-74
2023/03/01 04:41:09;;;;;;;22.23;9.63;;;-2.60;99.90;;;;;;5047949;28;20048;-74
2023/03/01 04:43:36;;;;;;;17.85;9.25;;;-2.60;99.90;;;;;;5046578;28;20098;-74
2023/03/01 04:46:08;;;;;;;21.05;9.45;;;-2.70;99.90;;;;;;5070676;28;20041;-74
2023/03/01 04:48:36;;;;;;;42.28;9.50;;;-2.70;99.90;;;;;;5075202;28;20099;-74
2023/03/01 04:51:05;;;;;;;19.30;8.98;;;-2.80;99.90;;;;;;5033213;28;20533;-74
2023/03/01 04:53:36;;;;;;;20.38;7.88;;;-2.90;99.90;;;;;;5066976;28;20074;-74
2023/03/01 04:56:05;;;;;;;36.87;8.40;;;-2.90;99.90;;;;;;5030370;28;20131;-73
2023/03/01 04:58:32;;;;;;;13.93;7.65;;;-3.00;99.90;;;;;;5047593;28;20059;-75
2023/03/01 05:00:57;;;;;;;14.75;7.82;;;-3.00;99.90;;;;;;5047928;28;20130;-74
2023/03/01 05:03:23;;;;;;;18.77;7.88;;;-3.00;99.90;;;;;;5045726;28;20534;-75
2023/03/01 05:05:51;;;;;;;13.23;7.25;;;-2.30;99.90;;;;;;5047313;28;20570;-74
2023/03/01 05:08:18;;;;;;;26.63;7.20;;;-3.00;99.90;;;;;;5066652;28;20495;-75
2023/03/01 05:10:51;;;;;;;11.70;6.07;;;-3.00;99.90;;;;;;5045527;28;20186;-75
2023/03/01 05:13:22;;;;;;;13.38;6.95;;;-3.00;99.90;;;;;;5063233;28;20126;-75
2023/03/01 05:15:56;;;;;;;14.60;7.97;;;-3.00;99.90;;;;;;5067753;28;20123;-75
2023/03/01 05:18:26;;;;;;;13.07;6.75;;;-3.00;99.90;;;;;;5041202;28;20678;-76
2023/03/01 05:20:56;;;;;;;14.02;6.82;;;-3.00;99.90;;;;;;5039808;28;20048;-76
2023/03/01 05:23:22;;;;;;;11.82;6.72;;;-2.60;99.90;;;;;;5058370;28;20040;-76
2023/03/01 05:25:49;;;;;;;15.48;7.70;;;-1.70;99.90;;;;;;5040131;28;20048;-76
2023/03/01 05:28:15;;;;;;;15.70;7.57;;;-3.00;99.90;;;;;;5036427;28;20043;-73
2023/03/01 05:30:41;;;;;;;16.60;8.05;;;-3.00;99.90;;;;;;5027740;28;20524;-75
2023/03/01 05:33:13;;;;;;;12.35;7.15;;;-3.00;99.90;;;;;;5038190;28;20052;-75
2023/03/01 05:35:45;;;;;;;15.48;8.07;;;-3.00;99.90;;;;;;5057713;28;20048;-75
2023/03/01 05:38:13;;;;;;;14.85;7.97;;;-3.00;99.90;;;;;;5044841;28;20048;-75
2023/03/01 05:40:40;;;;;;;16.05;7.65;;;-2.70;99.90;;;;;;5039143;28;20044;-74
2023/03/01 05:43:07;;;;;;;13.70;6.93;;;-3.00;99.90;;;;;;5054435;28;20138;-73
2023/03/01 05:45:32;;;;;;;13.50;6.78;;;-3.00;99.90;;;;;;5061360;28;20048;-75
2023/03/01 05:47:58;;;;;;;16.60;7.10;;;-3.00;99.90;;;;;;5056143;28;20037;-75
2023/03/01 05:50:27;;;;;;;16.75;8.13;;;-2.50;99.90;;;;;;5062023;28;20069;-75
2023/03/01 05:53:01;;;;;;;12.90;7.45;;;-3.00;99.90;;;;;;5065095;28;20047;-75
2023/03/01 05:55:28;;;;;;;17.83;8.13;;;-3.00;99.90;;;;;;5060797;28;20565;-75
2023/03/01 05:57:55;;;;;;;12.32;6.90;;;-3.00;99.90;;;;;;5060461;28;20044;-74
2023/03/01 06:00:22;;;;;;;14.73;7.82;;;-3.00;99.90;;;;;;5048896;28;20035;-74
2023/03/01 06:02:48;;;;;;;15.65;8.27;;;-3.00;99.90;;;;;;5060699;28;20048;-74
2023/03/01 06:05:14;;;;;;;13.70;7.00;;;-3.00;99.90;;;;;;5055833;28;20036;-74
2023/03/01 06:07:41;;;;;;;15.90;8.02;;;-3.00;99.90;;;;;;5050408;28;20040;-74
2023/03/01 06:10:07;;;;;;;16.20;7.20;;;-3.00;99.90;;;;;;5055922;28;20055;-74
2023/03/01 06:12:34;;;;;;;15.05;7.63;;;-3.00;99.90;;;;;;5064167;28;20389;-75
2023/03/01 06:15:00;;;;;;;16.95;8.38;;;-3.00;99.90;;;;;;5050833;28;20041;-75
2023/03/01 06:17:30;;;;;;;14.77;8.07;;;-3.00;99.90;;;;;;5038383;28;20041;-75
2023/03/01 06:19:56;;;;;;;16.30;8.32;;;-3.00;99.90;;;;;;5053143;28;20059;-74
2023/03/01 06:22:21;;;;;;;18.58;8.50;;;-3.00;99.90;;;;;;5072061;28;20515;-73
2023/03/01 06:24:47;;;;;;;14.70;7.60;;;-3.00;99.90;;;;;;5063717;28;20374;-75
2023/03/01 06:27:13;;;;;;;12.38;6.63;;;-3.10;99.90;;;;;;5048607;28;20468;-75
2023/03/01 06:29:43;;;;;;;12.07;6.72;;;-3.00;99.90;;;;;;5073224;28;20056;-74
2023/03/01 06:32:08;;;;;;;12.05;6.72;;;-3.10;99.90;;;;;;5049418;28;20056;-74
2023/03/01 06:34:34;;;;;;;13.32;7.13;;;-2.40;99.90;;;;;;5063691;28;20166;-75
2023/03/01 06:37:04;;;;;;;13.90;7.03;;;-3.10;99.90;;;;;;5064251;28;20056;-74
2023/03/01 06:39:31;;;;;;;13.35;7.30;;;-3.10;99.90;;;;;;5042826;28;20494;-75
2023/03/01 06:41:57;;;;;;;14.60;7.70;;;-3.10;99.90;;;;;;5037831;28;20723;-75
2023/03/01 06:44:23;;;;;;;15.98;7.43;;;-3.10;99.90;;;;;;5054595;28;20037;-74
2023/03/01 06:46:49;;;;;;;15.02;7.88;;;-3.10;99.90;;;;;;5037013;28;20064;-74
2023/03/01 06:49:16;;;;;;;15.27;8.32;;;-3.10;99.90;;;;;;5056099;28;20122;-75
2023/03/01 06:51:42;;;;;;;18.40;9.93;;;-3.10;99.90;;;;;;5049392;28;20052;-74
2023/03/01 06:54:07;;;;;;;14.77;7.93;;;-2.50;99.90;;;;;;5047619;28;20055;-74
2023/03/01 06:56:33;;;;;;;15.00;8.00;;;-3.10;99.90;;;;;;5062014;28;20040;-74
2023/03/01 06:58:59;;;;;;;15.45;7.75;;;-3.10;99.90;;;;;;5032594;28;20413;-74
2023/03/01 07:01:25;;;;;;;15.65;8.48;;;-2.40;99.90;;;;;;5063226;28;20040;-76
2023/03/01 07:03:51;;;;;;;14.75;7.72;;;-3.10;99.90;;;;;;5024519;28;20137;-75
2023/03/01 07:06:17;;;;;;;13.90;7.47;;;-2.50;99.90;;;;;;5047735;28;20782;-76
2023/03/01 07:08:43;;;;;;;14.85;7.10;;;-3.00;99.90;;;;;;5048097;28;20044;-75
2023/03/01 07:11:09;;;;;;;11.30;6.60;;;-2.70;99.90;;;;;;5029435;28;20104;-75
2023/03/01 07:13:34;;;;;;;12.10;6.80;;;-3.00;99.90;;;;;;5061958;28;20052;-75
2023/03/01 07:16:00;;;;;;;12.93;7.22;;;-3.00;99.90;;;;;;5050037;28;20478;-75
2023/03/01 07:18:26;;;;;;;12.07;6.70;;;-2.90;99.90;;;;;;5050273;28;20048;-75
2023/03/01 07:20:52;;;;;;;10.65;6.18;;;-2.90;99.90;;;;;;5061766;28;20036;-75
2023/03/01 07:23:18;;;;;;;14.00;7.53;;;-2.80;99.90;;;;;;5055246;28;20136;-75
2023/03/01 07:25:44;;;;;;;11.05;6.90;;;-2.80;99.90;;;;;;5026896;28;20102;-75
2023/03/01 07:28:10;;;;;;;16.90;6.72;;;-2.80;99.90;;;;;;5044784;28;20056;-75
2023/03/01 07:30:36;;;;;;;12.55;6.70;;;-2.70;99.90;;;;;;5062483;28;20047;-76
2023/03/01 07:33:02;;;;;;;11.07;6.68;;;-2.60;99.90;;;;;;5047176;28;20056;-75
2023/03/01 07:35:27;;;;;;;10.65;6.40;;;-2.50;99.90;;;;;;5043144;28;20048;-76
2023/03/01 07:37:53;;;;;;;12.05;6.32;;;-2.10;99.90;;;;;;5045774;28;20040;-76
2023/03/01 07:40:19;;;;;;;12.35;6.18;;;-2.30;99.90;;;;;;5061720;28;20044;-76
2023/03/01 07:42:45;;;;;;;10.10;5.78;;;-2.20;99.90;;;;;;5034143;28;20083;-76
2023/03/01 07:45:13;;;;;;;11.25;6.13;;;-1.70;99.90;;;;;;5056397;28;20068;-76
2023/03/01 07:47:38;;;;;;;9.77;5.50;;;-2.00;99.90;;;;;;5025870;28;20583;-75
2023/03/01 07:50:05;;;;;;;10.80;6.38;;;-1.90;99.90;;;;;;5069022;28;20049;-77
2023/03/01 07:52:31;;;;;;;10.30;6.00;;;-1.80;99.90;;;;;;5056629;28;20138;-76
2023/03/01 07:54:57;;;;;;;11.30;6.55;;;-1.70;99.90;;;;;;5060885;28;20045;-76
2023/03/01 07:57:23;;;;;;;9.65;6.10;;;-1.60;99.90;;;;;;5046147;28;20044;-76
2023/03/01 07:59:49;;;;;;;10.63;5.85;;;-1.50;99.90;;;;;;5044819;28;20044;-76
2023/03/01 08:02:15;;;;;;;11.13;6.28;;;-1.40;99.90;;;;;;5042207;28;20600;-76
2023/03/01 08:04:42;;;;;;;12.05;7.05;;;-0.40;99.90;;;;;;5043151;28;20056;-77
2023/03/01 08:07:08;;;;;;;14.77;7.60;;;-1.30;99.90;;;;;;5048537;28;20115;-76
2023/03/01 08:09:37;;;;;;;14.63;8.38;;;-1.20;99.90;;;;;;5041401;28;20139;-76
2023/03/01 08:12:04;;;;;;;15.38;8.98;;;-1.10;99.90;;;;;;5062099;28;20056;-77
2023/03/01 08:14:32;;;;;;;14.20;8.63;;;-1.00;99.90;;;;;;5061678;28;20082;-77
2023/03/01 08:16:58;;;;;;;14.82;8.63;;;-0.90;99.90;;;;;;5042021;28;20048;-75
2023/03/01 08:19:23;;;;;;;15.95;9.23;;;-0.80;99.90;;;;;;5024831;28;20040;-76
2023/03/01 08:21:49;;;;;;;17.60;10.20;;;-0.70;99.90;;;;;;5054463;28;20497;-76
2023/03/01 08:24:15;;;;;;;17.65;10.77;;;-0.50;99.90;;;;;;5017409;28;20120;-76
2023/03/01 08:26:41;;;;;;;20.77;11.30;;;-0.50;99.90;;;;;;5053870;28;20916;-77
2023/03/01 08:29:07;;;;;;;21.40;12.80;;;-0.40;99.90;;;;;;5060776;28;20044;-77
2023/03/01 08:31:37;;;;;;;22.63;13.18;;;-0.30;99.90;;;;;;5026318;28;20036;-76
2023/03/01 08:34:06;;;;;;;21.83;12.98;;;-0.20;99.90;;;;;;5028929;28;20045;-77
2023/03/01 08:36:37;;;;;;;23.10;13.13;;;0.00;99.90;;;;;;5052899;28;20128;-77
2023/03/01 08:39:03;;;;;;;22.05;12.23;;;0.20;99.90;;;;;;5037706;28;20048;-76
2023/03/01 08:41:28;;;;;;;25.90;12.80;;;0.30;99.90;;;;;;5039815;28;20044;-76
2023/03/01 08:43:58;;;;;;;28.52;14.32;;;0.30;99.90;;;;;;5043225;28;20041;-77
2023/03/01 08:46:28;;;;;;;24.63;14.60;;;0.40;99.90;;;;;;5029335;28;20138;-76
2023/03/01 08:48:54;;;;;;;27.08;15.57;;;0.50;99.90;;;;;;5062324;28;20040;-76
2023/03/01 08:51:21;;;;;;;25.98;14.55;;;0.70;99.90;;;;;;5041523;28;20025;-77
2023/03/01 08:53:47;;;;;;;27.40;14.95;;;0.90;99.90;;;;;;5033219;28;20044;-76
2023/03/01 08:56:12;;;;;;;33.80;18.02;;;1.00;99.90;;;;;;5069844;28;20528;-76
2023/03/01 08:58:41;;;;;;;29.75;17.42;;;1.50;99.90;;;;;;5045642;28;20049;-76
2023/03/01 09:01:11;;;;;;;30.70;18.40;;;1.40;99.90;;;;;;5061698;28;20068;-76
2023/03/01 09:03:37;;;;;;;31.20;18.33;;;1.50;99.90;;;;;;5042625;28;20041;-76
2023/03/01 09:06:04;;;;;;;35.72;19.20;;;1.60;99.90;;;;;;5042309;28;20041;-76
2023/03/01 09:08:33;;;;;;;33.92;18.40;;;1.70;99.90;;;;;;5047818;28;20047;-76
2023/03/01 09:11:02;;;;;;;33.40;19.17;;;1.80;99.90;;;;;;5038444;28;20056;-76
2023/03/01 09:13:30;;;;;;;33.50;19.70;;;2.00;99.90;;;;;;5026122;28;20037;-77
2023/03/01 09:15:57;;;;;;;38.05;21.35;;;2.00;99.90;;;;;;5022432;28;20053;-76
2023/03/01 09:18:23;;;;;;;40.38;22.10;;;2.10;99.90;;;;;;5041716;28;20052;-76
2023/03/01 09:20:49;;;;;;;41.10;23.20;;;2.60;99.90;;;;;;5065005;28;20040;-75
2023/03/01 09:23:15;;;;;;;38.58;24.00;;;2.30;99.90;;;;;;5051854;28;20048;-75
2023/03/01 09:25:40;;;;;;;38.60;24.75;;;2.40;99.90;;;;;;5035089;28;20051;-75
2023/03/01 09:28:06;;;;;;;40.28;23.52;;;2.50;99.90;;;;;;5047550;28;20451;-75
2023/03/01 09:30:32;;;;;;;42.63;25.42;;;2.50;99.90;;;;;;5039079;28;20052;-75
2023/03/01 09:32:58;;;;;;;40.72;25.50;;;3.40;99.90;;;;;;5048379;28;20119;-75
2023/03/01 09:35:24;;;;;;;43.47;27.65;;;2.70;99.90;;;;;;5019936;28;20048;-75
2023/03/01 09:37:51;;;;;;;44.70;27.25;;;2.80;99.90;;;;;;5048312;28;20500;-75
2023/03/01 09:40:21;;;;;;;47.10;27.50;;;2.90;99.90;;;;;;5060048;28;20052;-75
2023/03/01 09:43:08;;;;;;;42.22;27.88;;;3.60;99.90;;;;;;5061309;28;20115;-75
2023/03/01 09:45:40;;;;;;;40.42;25.77;;;3.00;99.90;;;;;;5041420;28;20698;-74
2023/03/01 09:48:11;;;;;;;;;;;3.10;99.90;;;;;;5050120;28;20040;-75
2023/03/01 09:50:41;;;;;;;38.10;23.40;;;3.40;99.90;;;;;;5053117;28;19932;-75
2023/03/01 09:53:14;;;;;;;39.70;24.13;;;3.40;99.90;;;;;;5076650;28;20044;-75
2023/03/01 09:55:59;;;;;;;33.25;20.80;;;3.30;99.90;;;;;;5061853;28;20790;-75
2023/03/01 09:58:39;;;;;;;33.15;20.02;;;3.40;99.90;;;;;;5034054;28;20041;-75
2023/03/01 10:01:27;;;;;;;34.95;20.17;;;3.50;99.90;;;;;;5065701;28;20045;-74
2023/03/01 10:04:10;;;;;;;30.25;18.65;;;3.50;99.90;;;;;;5052588;28;20033;-74
2023/03/01 10:06:36;;;;;;;29.48;17.90;;;3.60;99.90;;;;;;5070129;28;20170;-74
2023/03/01 10:09:13;;;;;;;29.30;18.65;;;3.60;99.90;;;;;;5042048;28;20257;-75
2023/03/01 10:11:48;;;;;;;33.03;19.63;;;3.70;99.90;;;;;;5047903;28;20048;-75
2023/03/01 10:14:22;;;;;;;28.52;17.33;;;3.80;99.90;;;;;;5047572;28;20044;-76
2023/03/01 10:17:02;;;;;;;27.67;16.20;;;3.80;99.90;;;;;;5053488;28;20037;-75
2023/03/01 10:19:39;;;;;;;22.60;13.93;;;3.90;99.90;;;;;;5038405;28;20037;-75
2023/03/01 10:22:31;;;;;;;23.65;14.23;;;4.00;99.90;;;;;;5022369;28;20060;-75
2023/03/01 10:25:02;;;;;;;25.75;15.85;;;4.10;99.90;;;;;;5041211;28;20049;-75
2023/03/01 10:27:54;;;;;;;27.73;16.70;;;4.10;99.90;;;;;;5057350;28;20130;-76
2023/03/01 10:30:29;;;;;;;30.08;17.45;;;4.20;99.90;;;;;;5032083;28;20405;-75
2023/03/01 10:32:56;;;;;;;31.52;18.83;;;4.30;99.90;;;;;;5053841;28;20620;-75
2023/03/01 10:35:28;;;;;;;31.48;19.42;;;4.40;99.90;;;;;;5034599;28;20088;-75
2023/03/01 10:38:06;;;;;;;30.00;17.67;;;4.40;99.90;;;;;;5053512;28;20052;-75
2023/03/01 10:40:34;;;;;;;32.05;19.17;;;4.50;99.90;;;;;;5040054;28;20037;-75
2023/03/01 10:43:05;;;;;;;28.30;18.52;;;4.90;99.90;;;;;;5047437;28;20032;-75
2023/03/01 10:45:36;;;;;;;27.27;18.15;;;4.60;99.90;;;;;;5033259;28;20409;-75
2023/03/01 10:48:13;;;;;;;;;;;4.70;99.90;;;;;;5034593;28;20117;-78
2023/03/01 10:50:41;;;;;;;28.92;16.88;;;4.70;99.90;;;;;;5048499;28;19936;-76
2023/03/01 10:53:28;;;;;;;27.02;17.42;;;4.70;99.90;;;;;;5048872;28;20408;-77
2023/03/01 10:56:01;;;;;;;27.63;17.10;;;4.80;99.90;;;;;;5033821;28;20133;-75
2023/03/01 10:58:27;;;;;;;28.83;16.85;;;4.80;99.90;;;;;;5045221;28;20040;-76
2023/03/01 11:01:05;;;;;;;28.02;16.73;;;4.90;99.90;;;;;;5028131;28;20052;-75
2023/03/01 11:03:37;;;;;;;31.05;17.23;;;5.00;99.90;;;;;;5027592;28;20122;-75
2023/03/01 11:06:26;;;;;;;27.73;17.40;;;5.00;99.90;;;;;;5035006;28;20049;-75
2023/03/01 11:08:53;;;;;;;29.42;17.77;;;5.00;99.90;;;;;;5020841;28;20405;-74
2023/03/01 11:11:35;;;;;;;29.85;18.58;;;5.00;99.90;;;;;;5044215;28;20037;-75
2023/03/01 11:14:13;;;;;;;23.35;15.95;;;5.10;99.90;;;;;;5044396;28;20046;-76
2023/03/01 11:16:41;;;;;;;24.75;16.65;;;5.10;99.90;;;;;;5038839;28;20058;-76
2023/03/01 11:19:10;;;;;;;24.23;16.27;;;5.20;99.90;;;;;;5034634;28;20166;-75
2023/03/01 11:21:43;;;;;;;25.52;15.27;;;5.30;99.90;;;;;;5041517;28;20052;-76
2023/03/01 11:24:12;;;;;;;23.58;15.35;;;5.30;99.90;;;;;;5022218;28;20052;-76
2023/03/01 11:26:45;;;;;;;24.25;15.32;;;5.40;99.90;;;;;;5068179;28;20052;-76
2023/03/01 11:29:41;;;;;;;24.92;15.52;;;5.40;99.90;;;;;;5056072;28;20052;-75
2023/03/01 11:32:11;;;;;;;29.85;17.65;;;5.50;99.90;;;;;;5015752;28;20048;-75
2023/03/01 11:34:51;;;;;;;24.13;16.00;;;5.70;99.90;;;;;;5063973;28;20044;-75
2023/03/01 11:38:01;;;;;;;24.75;15.35;;;5.60;99.90;;;;;;5058816;28;20080;-75
2023/03/01 11:40:37;;;;;;;26.05;15.30;;;5.60;99.90;;;;;;5002545;28;20173;-76
2023/03/01 11:43:33;;;;;;;24.40;15.43;;;5.70;99.90;;;;;;5025578;28;20448;-75
2023/03/01 11:46:30;;;;;;;28.08;14.43;;;5.80;99.90;;;;;;5034123;28;20048;-76
2023/03/01 11:49:04;;;;;;;21.95;13.20;;;5.80;99.90;;;;;;5044838;28;20496;-77
2023/03/01 11:51:55;;;;;;;23.98;13.60;;;5.80;99.90;;;;;;5059595;28;20397;-76
2023/03/01 11:54:42;;;;;;;23.13;13.03;;;5.90;99.90;;;;;;5060964;28;20136;-73
2023/03/01 11:57:10;;;;;;;20.80;12.77;;;5.90;99.90;;;;;;5034641;28;20049;-75
2023/03/01 11:59:54;;;;;;;19.60;12.63;;;6.20;99.90;;;;;;5045802;28;20036;-75
2023/03/01 12:02:45;;;;;;;21.35;12.18;;;6.00;99.90;;;;;;5035770;28;20047;-75
2023/03/01 12:05:23;;;;;;;18.45;12.30;;;6.10;99.90;;;;;;5041498;28;20051;-74
2023/03/01 12:08:20;;;;;;;19.70;12.15;;;6.20;99.90;;;;;;5048897;28;20048;-75
2023/03/01 12:11:02;;;;;;;22.23;12.63;;;6.30;99.90;;;;;;5065201;28;20115;-75
2023/03/01 12:13:54;;;;;;;21.15;12.85;;;6.30;99.90;;;;;;5040180;28;20043;-75
2023/03/01 12:16:27;;;;;;;21.38;13.23;;;6.30;99.90;;;;;;5065649;28;20558;-69
2023/03/01 12:19:11;;;;;;;21.20;12.25;;;6.40;99.90;;;;;;5062182;28;20044;-69
2023/03/01 12:21:46;;;;;;;19.17;11.27;;;6.40;99.90;;;;;;5033493;28;20059;-75
2023/03/01 12:24:32;;;;;;;17.70;11.05;;;6.40;99.90;;;;;;5066061;28;20040;-75
2023/03/01 12:27:07;;;;;;;17.67;11.20;;;6.40;99.90;;;;;;5062257;28;20335;-75
2023/03/01 12:30:02;;;;;;;25.27;12.95;;;6.50;99.90;;;;;;5060094;28;20040;-76
2023/03/01 12:33:02;;;;;;;18.52;11.07;;;6.50;99.90;;;;;;5036164;28;20083;-74
2023/03/01 12:36:11;;;;;;;17.63;10.77;;;6.60;99.90;;;;;;5039903;28;20948;-76
2023/03/01 12:38:50;;;;;;;20.63;11.70;;;6.60;99.90;;;;;;5022707;28;20460;-75
2023/03/01 12:41:41;;;;;;;19.00;11.57;;;6.80;99.90;;;;;;5059387;28;20151;-76
2023/03/01 12:44:09;;;;;;;19.20;11.63;;;6.80;99.90;;;;;;5066619;28;20545;-75
2023/03/01 12:46:56;;;;;;;18.85;11.18;;;6.80;99.90;;;;;;5062697;28;20456;-76
2023/03/01 12:49:51;;;;;;;19.90;11.07;;;6.90;99.90;;;;;;5061330;28;20063;-76
2023/03/01 12:52:38;;;;;;;18.00;11.25;;;6.90;99.90;;;;;;5058551;28;20063;-75
2023/03/01 12:55:25;;;;;;;18.33;10.90;;;6.90;99.90;;;;;;5058491;28;20389;-74